sensor_id;sensor_type;location;lat;lon;timestamp;temperature;humidity
46890;DHT22;32625;51.080;16.970;2023-08-30T00:01:16;15.10;99.90
46890;DHT22;32625;51.080;16.970;2023-08-30T00:03:43;15.10;99.90
46890;DHT22;32625;51.080;16.970;2023-08-30T00:06:10;15.10;99.90
46890;DHT22;32625;51.080;16.970;2023-08-30T00:08:37;15.10;99.90
46890;DHT22;32625;51.080;16.970;2023-08-30T00:11:04;15.10;99.90
46890;DHT22;32625;51.080;16.970;2023-08-30T00:13:32;15.10;99.90
46890;DHT22;32625;51.080;16.970;2023-08-30T00:16:00;15.10;99.90
46890;DHT22;32625;51.080;16.970;2023-08-30T00:18:29;15.10;99.90
46890;DHT22;32625;51.080;16.970;2023-08-30T00:20:56;15.10;99.90
46890;DHT22;32625;51.080;16.970;2023-08-30T00:23:24;15.10;99.90
46890;DHT22;32625;51.080;16.970;2023-08-30T00:25:51;15.10;99.90
46890;DHT22;32625;51.080;16.970;2023-08-30T00:28:18;15.00;99.90
46890;DHT22;32625;51.080;16.970;2023-08-30T00:30:45;15.10;99.90
46890;DHT22;32625;51.080;16.970;2023-08-30T00:33:12;15.10;99.90
46890;DHT22;32625;51.080;16.970;2023-08-30T00:35:39;15.10;99.90
46890;DHT22;32625;51.080;16.970;2023-08-30T00:38:07;15.10;99.90
46890;DHT22;32625;51.080;16.970;2023-08-30T00:40:38;15.10;99.90
46890;DHT22;32625;51.080;16.970;2023-08-30T00:43:09;15.10;99.90
46890;DHT22;32625;51.080;16.970;2023-08-30T00:45:38;15.10;99.90
46890;DHT22;32625;51.080;16.970;2023-08-30T00:48:06;15.00;99.90
46890;DHT22;32625;51.080;16.970;2023-08-30T00:50:35;15.00;99.90
46890;DHT22;32625;51.080;16.970;2023-08-30T00:53:03;15.00;99.90
46890;DHT22;32625;51.080;16.970;2023-08-30T00:55:37;15.00;99.90
46890;DHT22;32625;51.080;16.970;2023-08-30T00:58:05;15.00;99.90
46890;DHT22;32625;51.080;16.970;2023-08-30T01:00:33;15.00;99.90
46890;DHT22;32625;51.080;16.970;2023-08-30T01:03:00;15.00;99.90
46890;DHT22;32625;51.080;16.970;2023-08-30T01:05:28;14.90;99.90
46890;DHT22;32625;51.080;16.970;2023-08-30T01:07:55;14.90;99.90
46890;DHT22;32625;51.080;16.970;2023-08-30T01:13:23;14.90;99.90
46890;DHT22;32625;51.080;16.970;2023-08-30T01:15:53;14.90;99.90
46890;DHT22;32625;51.080;16.970;2023-08-30T01:18:22;14.90;99.90
46890;DHT22;32625;51.080;16.970;2023-08-30T01:20:53;14.90;99.90
46890;DHT22;32625;51.080;16.970;2023-08-30T01:23:48;14.90;99.90
46890;DHT22;32625;51.080;16.970;2023-08-30T01:29:09;14.90;99.90
46890;DHT22;32625;51.080;16.970;2023-08-30T01:31:38;14.90;99.90
46890;DHT22;32625;51.080;16.970;2023-08-30T01:34:05;14.90;99.90
46890;DHT22;32625;51.080;16.970;2023-08-30T01:36:32;14.90;99.90
46890;DHT22;32625;51.080;16.970;2023-08-30T01:39:01;14.90;99.90
46890;DHT22;32625;51.080;16.970;2023-08-30T01:41:30;14.90;99.90
46890;DHT22;32625;51.080;16.970;2023-08-30T01:43:58;14.90;99.90
46890;DHT22;32625;51.080;16.970;2023-08-30T01:46:26;14.90;99.90
46890;DHT22;32625;51.080;16.970;2023-08-30T01:48:54;14.90;99.90
46890;DHT22;32625;51.080;16.970;2023-08-30T01:51:22;14.90;99.90
46890;DHT22;32625;51.080;16.970;2023-08-30T01:53:50;14.90;99.90
46890;DHT22;32625;51.080;16.970;2023-08-30T01:56:18;14.90;99.90
46890;DHT22;32625;51.080;16.970;2023-08-30T01:58:45;14.80;99.90
46890;DHT22;32625;51.080;16.970;2023-08-30T02:01:12;14.80;99.90
46890;DHT22;32625;51.080;16.970;2023-08-30T02:03:39;14.80;99.90
46890;DHT22;32625;51.080;16.970;2023-08-30T02:06:11;14.80;99.90
46890;DHT22;32625;51.080;16.970;2023-08-30T02:08:59;14.80;99.90
46890;DHT22;32625;51.080;16.970;2023-08-30T02:11:29;14.90;99.90
46890;DHT22;32625;51.080;16.970;2023-08-30T02:13:58;14.90;99.90
46890;DHT22;32625;51.080;16.970;2023-08-30T02:16:26;14.90;99.90
46890;DHT22;32625;51.080;16.970;2023-08-30T02:18:55;14.90;99.90
46890;DHT22;32625;51.080;16.970;2023-08-30T02:21:22;14.80;99.90
46890;DHT22;32625;51.080;16.970;2023-08-30T02:23:50;14.80;99.90
46890;DHT22;32625;51.080;16.970;2023-08-30T02:26:21;14.80;99.90
46890;DHT22;32625;51.080;16.970;2023-08-30T02:28:48;14.80;99.90
46890;DHT22;32625;51.080;16.970;2023-08-30T02:31:15;14.90;99.90
46890;DHT22;32625;51.080;16.970;2023-08-30T02:33:44;14.80;99.90
46890;DHT22;32625;51.080;16.970;2023-08-30T02:36:11;14.90;99.90
46890;DHT22;32625;51.080;16.970;2023-08-30T02:38:38;14.90;99.90
46890;DHT22;32625;51.080;16.970;2023-08-30T02:41:05;14.80;99.90
46890;DHT22;32625;51.080;16.970;2023-08-30T02:43:32;14.90;99.90
46890;DHT22;32625;51.080;16.970;2023-08-30T02:45:59;14.80;99.90
46890;DHT22;32625;51.080;16.970;2023-08-30T02:48:28;14.90;99.90
46890;DHT22;32625;51.080;16.970;2023-08-30T02:50:55;14.80;99.90
46890;DHT22;32625;51.080;16.970;2023-08-30T02:53:22;14.80;99.90
46890;DHT22;32625;51.080;16.970;2023-08-30T02:55:49;14.80;99.90
46890;DHT22;32625;51.080;16.970;2023-08-30T02:58:16;14.80;99.90
46890;DHT22;32625;51.080;16.970;2023-08-30T03:00:43;14.80;99.90
46890;DHT22;32625;51.080;16.970;2023-08-30T03:03:10;14.80;99.90
46890;DHT22;32625;51.080;16.970;2023-08-30T03:05:37;14.80;99.90
46890;DHT22;32625;51.080;16.970;2023-08-30T03:08:04;14.80;99.90
46890;DHT22;32625;51.080;16.970;2023-08-30T03:10:32;14.80;99.90
46890;DHT22;32625;51.080;16.970;2023-08-30T03:12:59;14.80;99.90
46890;DHT22;32625;51.080;16.970;2023-08-30T03:15:26;14.90;99.90
46890;DHT22;32625;51.080;16.970;2023-08-30T03:17:53;14.90;99.90
46890;DHT22;32625;51.080;16.970;2023-08-30T03:20:20;14.80;99.90
46890;DHT22;32625;51.080;16.970;2023-08-30T03:22:48;14.90;99.90
46890;DHT22;32625;51.080;16.970;2023-08-30T03:25:15;14.90;99.90
46890;DHT22;32625;51.080;16.970;2023-08-30T03:27:43;14.80;99.90
46890;DHT22;32625;51.080;16.970;2023-08-30T03:30:11;14.80;99.90
46890;DHT22;32625;51.080;16.970;2023-08-30T03:32:38;14.80;99.90
46890;DHT22;32625;51.080;16.970;2023-08-30T03:35:05;14.80;99.90
46890;DHT22;32625;51.080;16.970;2023-08-30T03:37:32;14.80;99.90
46890;DHT22;32625;51.080;16.970;2023-08-30T03:40:00;14.90;99.90
46890;DHT22;32625;51.080;16.970;2023-08-30T03:42:27;14.90;99.90
46890;DHT22;32625;51.080;16.970;2023-08-30T03:44:55;14.90;99.90
46890;DHT22;32625;51.080;16.970;2023-08-30T03:47:22;14.80;99.90
46890;DHT22;32625;51.080;16.970;2023-08-30T03:49:49;14.80;99.90
46890;DHT22;32625;51.080;16.970;2023-08-30T03:52:16;14.80;99.90
46890;DHT22;32625;51.080;16.970;2023-08-30T03:54:43;14.80;99.90
46890;DHT22;32625;51.080;16.970;2023-08-30T03:57:10;14.80;99.90
46890;DHT22;32625;51.080;16.970;2023-08-30T03:59:38;14.80;99.90
46890;DHT22;32625;51.080;16.970;2023-08-30T04:02:05;14.80;99.90
46890;DHT22;32625;51.080;16.970;2023-08-30T04:04:32;14.70;99.90
46890;DHT22;32625;51.080;16.970;2023-08-30T04:06:59;14.70;99.90
46890;DHT22;32625;51.080;16.970;2023-08-30T04:09:26;14.80;99.90
46890;DHT22;32625;51.080;16.970;2023-08-30T04:11:53;14.80;99.90
46890;DHT22;32625;51.080;16.970;2023-08-30T04:14:20;14.70;99.90
46890;DHT22;32625;51.080;16.970;2023-08-30T04:16:50;14.70;99.90
46890;DHT22;32625;51.080;16.970;2023-08-30T04:19:17;14.70;99.90
46890;DHT22;32625;51.080;16.970;2023-08-30T04:21:44;14.70;99.90
46890;DHT22;32625;51.080;16.970;2023-08-30T04:24:10;14.70;99.90
46890;DHT22;32625;51.080;16.970;2023-08-30T04:26:37;14.80;99.90
46890;DHT22;32625;51.080;16.970;2023-08-30T04:29:04;14.70;99.90
46890;DHT22;32625;51.080;16.970;2023-08-30T04:31:31;14.70;99.90
46890;DHT22;32625;51.080;16.970;2023-08-30T04:34:00;14.70;99.90
46890;DHT22;32625;51.080;16.970;2023-08-30T04:36:27;14.70;99.90
46890;DHT22;32625;51.080;16.970;2023-08-30T04:38:54;14.70;99.90
46890;DHT22;32625;51.080;16.970;2023-08-30T04:41:29;14.70;99.90
46890;DHT22;32625;51.080;16.970;2023-08-30T04:43:56;14.80;99.90
46890;DHT22;32625;51.080;16.970;2023-08-30T04:46:23;14.70;99.90
46890;DHT22;32625;51.080;16.970;2023-08-30T04:48:51;14.70;99.90
46890;DHT22;32625;51.080;16.970;2023-08-30T04:51:18;14.70;99.90
46890;DHT22;32625;51.080;16.970;2023-08-30T04:53:45;14.70;99.90
46890;DHT22;32625;51.080;16.970;2023-08-30T04:56:13;14.80;99.90
46890;DHT22;32625;51.080;16.970;2023-08-30T04:58:40;14.70;99.90
46890;DHT22;32625;51.080;16.970;2023-08-30T05:01:09;14.70;99.90
46890;DHT22;32625;51.080;16.970;2023-08-30T05:03:40;14.70;99.90
46890;DHT22;32625;51.080;16.970;2023-08-30T05:06:10;14.70;99.90
46890;DHT22;32625;51.080;16.970;2023-08-30T05:08:39;14.70;99.90
46890;DHT22;32625;51.080;16.970;2023-08-30T05:11:06;14.70;99.90
46890;DHT22;32625;51.080;16.970;2023-08-30T05:13:35;14.70;99.90
46890;DHT22;32625;51.080;16.970;2023-08-30T05:16:02;14.80;99.90
46890;DHT22;32625;51.080;16.970;2023-08-30T05:18:30;14.80;99.90
46890;DHT22;32625;51.080;16.970;2023-08-30T05:20:56;14.80;99.90
46890;DHT22;32625;51.080;16.970;2023-08-30T05:23:23;14.80;99.90
46890;DHT22;32625;51.080;16.970;2023-08-30T05:25:51;14.90;99.90
46890;DHT22;32625;51.080;16.970;2023-08-30T05:28:18;14.90;99.90
46890;DHT22;32625;51.080;16.970;2023-08-30T05:30:45;14.90;99.90
46890;DHT22;32625;51.080;16.970;2023-08-30T05:33:24;15.00;99.90
46890;DHT22;32625;51.080;16.970;2023-08-30T05:36:17;14.90;99.90
46890;DHT22;32625;51.080;16.970;2023-08-30T05:39:00;15.00;99.90
46890;DHT22;32625;51.080;16.970;2023-08-30T05:41:35;15.00;99.90
46890;DHT22;32625;51.080;16.970;2023-08-30T05:44:02;15.00;99.90
46890;DHT22;32625;51.080;16.970;2023-08-30T05:46:30;15.00;99.90
46890;DHT22;32625;51.080;16.970;2023-08-30T05:48:56;15.00;99.90
46890;DHT22;32625;51.080;16.970;2023-08-30T05:51:23;15.00;99.90
46890;DHT22;32625;51.080;16.970;2023-08-30T05:53:51;15.00;99.90
46890;DHT22;32625;51.080;16.970;2023-08-30T05:56:18;15.00;99.90
46890;DHT22;32625;51.080;16.970;2023-08-30T05:58:45;15.00;99.90
46890;DHT22;32625;51.080;16.970;2023-08-30T06:01:11;15.00;99.90
46890;DHT22;32625;51.080;16.970;2023-08-30T06:03:39;14.90;99.90
46890;DHT22;32625;51.080;16.970;2023-08-30T06:06:06;14.90;99.90
46890;DHT22;32625;51.080;16.970;2023-08-30T06:08:33;15.00;99.90
46890;DHT22;32625;51.080;16.970;2023-08-30T06:11:00;15.00;99.90
46890;DHT22;32625;51.080;16.970;2023-08-30T06:13:27;15.00;99.90
46890;DHT22;32625;51.080;16.970;2023-08-30T06:15:54;15.00;99.90
46890;DHT22;32625;51.080;16.970;2023-08-30T06:18:21;14.90;99.90
46890;DHT22;32625;51.080;16.970;2023-08-30T06:20:48;15.00;99.90
46890;DHT22;32625;51.080;16.970;2023-08-30T06:23:19;15.00;99.90
46890;DHT22;32625;51.080;16.970;2023-08-30T06:25:56;15.00;99.90
46890;DHT22;32625;51.080;16.970;2023-08-30T06:28:23;15.00;99.90
46890;DHT22;32625;51.080;16.970;2023-08-30T06:30:50;15.00;99.90
46890;DHT22;32625;51.080;16.970;2023-08-30T06:33:17;15.00;99.90
46890;DHT22;32625;51.080;16.970;2023-08-30T06:35:48;14.90;99.90
46890;DHT22;32625;51.080;16.970;2023-08-30T06:38:15;14.90;99.90
46890;DHT22;32625;51.080;16.970;2023-08-30T06:40:45;15.00;99.90
46890;DHT22;32625;51.080;16.970;2023-08-30T06:43:12;15.00;99.90
46890;DHT22;32625;51.080;16.970;2023-08-30T06:45:40;15.00;99.90
46890;DHT22;32625;51.080;16.970;2023-08-30T06:48:07;15.10;99.90
46890;DHT22;32625;51.080;16.970;2023-08-30T06:50:35;15.10;99.90
46890;DHT22;32625;51.080;16.970;2023-08-30T06:53:03;15.10;99.90
46890;DHT22;32625;51.080;16.970;2023-08-30T06:55:30;15.10;99.90
46890;DHT22;32625;51.080;16.970;2023-08-30T06:57:58;15.10;99.90
46890;DHT22;32625;51.080;16.970;2023-08-30T07:00:25;15.10;99.90
46890;DHT22;32625;51.080;16.970;2023-08-30T07:02:53;15.10;99.90
46890;DHT22;32625;51.080;16.970;2023-08-30T07:05:20;15.10;99.90
46890;DHT22;32625;51.080;16.970;2023-08-30T07:07:47;15.10;99.90
46890;DHT22;32625;51.080;16.970;2023-08-30T07:10:14;15.20;99.90
46890;DHT22;32625;51.080;16.970;2023-08-30T07:12:41;15.20;99.90
46890;DHT22;32625;51.080;16.970;2023-08-30T07:15:08;15.10;99.90
46890;DHT22;32625;51.080;16.970;2023-08-30T07:17:35;15.20;99.90
46890;DHT22;32625;51.080;16.970;2023-08-30T07:20:19;15.20;99.90
46890;DHT22;32625;51.080;16.970;2023-08-30T07:22:46;15.20;99.90
46890;DHT22;32625;51.080;16.970;2023-08-30T07:25:13;15.20;99.90
46890;DHT22;32625;51.080;16.970;2023-08-30T07:27:41;15.20;99.90
46890;DHT22;32625;51.080;16.970;2023-08-30T07:30:11;15.20;99.90
46890;DHT22;32625;51.080;16.970;2023-08-30T07:32:38;15.20;99.90
46890;DHT22;32625;51.080;16.970;2023-08-30T07:35:05;15.20;99.90
46890;DHT22;32625;51.080;16.970;2023-08-30T07:37:35;15.10;99.90
46890;DHT22;32625;51.080;16.970;2023-08-30T07:40:02;15.10;99.90
46890;DHT22;32625;51.080;16.970;2023-08-30T07:42:33;15.10;99.90
46890;DHT22;32625;51.080;16.970;2023-08-30T07:45:00;15.10;99.90
46890;DHT22;32625;51.080;16.970;2023-08-30T07:47:27;15.10;99.90
46890;DHT22;32625;51.080;16.970;2023-08-30T07:49:54;15.10;99.90
46890;DHT22;32625;51.080;16.970;2023-08-30T07:52:21;15.10;99.90
46890;DHT22;32625;51.080;16.970;2023-08-30T07:55:08;15.10;99.90
46890;DHT22;32625;51.080;16.970;2023-08-30T07:57:36;15.10;99.90
46890;DHT22;32625;51.080;16.970;2023-08-30T08:00:03;15.10;99.90
46890;DHT22;32625;51.080;16.970;2023-08-30T08:02:37;15.00;99.90
46890;DHT22;32625;51.080;16.970;2023-08-30T08:05:04;15.00;99.90
46890;DHT22;32625;51.080;16.970;2023-08-30T08:07:31;14.90;99.90
46890;DHT22;32625;51.080;16.970;2023-08-30T08:09:58;15.00;99.90
46890;DHT22;32625;51.080;16.970;2023-08-30T08:12:26;15.00;99.90
46890;DHT22;32625;51.080;16.970;2023-08-30T08:14:53;15.00;99.90
46890;DHT22;32625;51.080;16.970;2023-08-30T08:17:20;15.10;99.90
46890;DHT22;32625;51.080;16.970;2023-08-30T08:19:47;15.20;99.90
46890;DHT22;32625;51.080;16.970;2023-08-30T08:22:14;15.30;99.90
46890;DHT22;32625;51.080;16.970;2023-08-30T08:24:41;15.30;99.90
46890;DHT22;32625;51.080;16.970;2023-08-30T08:27:10;15.30;99.90
46890;DHT22;32625;51.080;16.970;2023-08-30T08:29:38;15.30;99.90
46890;DHT22;32625;51.080;16.970;2023-08-30T08:32:05;15.20;99.90
46890;DHT22;32625;51.080;16.970;2023-08-30T08:34:32;15.20;99.90
46890;DHT22;32625;51.080;16.970;2023-08-30T08:36:59;15.20;99.90
46890;DHT22;32625;51.080;16.970;2023-08-30T08:39:26;15.30;99.90
46890;DHT22;32625;51.080;16.970;2023-08-30T08:41:53;15.30;99.90
46890;DHT22;32625;51.080;16.970;2023-08-30T08:44:21;15.40;99.90
46890;DHT22;32625;51.080;16.970;2023-08-30T08:46:50;15.30;99.90
46890;DHT22;32625;51.080;16.970;2023-08-30T08:49:18;15.40;99.90
46890;DHT22;32625;51.080;16.970;2023-08-30T08:51:45;15.30;99.90
46890;DHT22;32625;51.080;16.970;2023-08-30T08:54:13;15.30;99.90
46890;DHT22;32625;51.080;16.970;2023-08-30T08:56:41;15.30;99.90
46890;DHT22;32625;51.080;16.970;2023-08-30T08:59:08;15.30;99.90
46890;DHT22;32625;51.080;16.970;2023-08-30T09:01:36;15.30;99.90
46890;DHT22;32625;51.080;16.970;2023-08-30T09:04:08;15.30;99.90
46890;DHT22;32625;51.080;16.970;2023-08-30T09:06:36;15.20;99.90
46890;DHT22;32625;51.080;16.970;2023-08-30T09:09:04;15.20;99.90
46890;DHT22;32625;51.080;16.970;2023-08-30T09:11:32;15.20;99.90
46890;DHT22;32625;51.080;16.970;2023-08-30T09:14:02;15.20;99.90
46890;DHT22;32625;51.080;16.970;2023-08-30T09:16:29;15.20;99.90
46890;DHT22;32625;51.080;16.970;2023-08-30T09:19:02;15.20;99.90
46890;DHT22;32625;51.080;16.970;2023-08-30T09:21:36;15.30;99.90
46890;DHT22;32625;51.080;16.970;2023-08-30T09:24:05;15.30;99.90
46890;DHT22;32625;51.080;16.970;2023-08-30T09:26:34;15.40;99.90
46890;DHT22;32625;51.080;16.970;2023-08-30T09:29:06;15.50;99.90
46890;DHT22;32625;51.080;16.970;2023-08-30T09:31:34;15.50;99.90
46890;DHT22;32625;51.080;16.970;2023-08-30T09:34:03;15.50;99.90
46890;DHT22;32625;51.080;16.970;2023-08-30T09:36:37;15.50;99.90
46890;DHT22;32625;51.080;16.970;2023-08-30T09:39:05;15.50;99.90
46890;DHT22;32625;51.080;16.970;2023-08-30T09:41:32;15.50;99.90
46890;DHT22;32625;51.080;16.970;2023-08-30T09:44:13;15.50;99.90
46890;DHT22;32625;51.080;16.970;2023-08-30T09:46:45;15.50;99.90
46890;DHT22;32625;51.080;16.970;2023-08-30T09:49:22;15.50;99.90
46890;DHT22;32625;51.080;16.970;2023-08-30T09:51:51;15.50;99.90
46890;DHT22;32625;51.080;16.970;2023-08-30T09:54:24;15.50;99.90
46890;DHT22;32625;51.080;16.970;2023-08-30T09:56:54;15.50;99.90
46890;DHT22;32625;51.080;16.970;2023-08-30T09:59:23;15.50;99.90
46890;DHT22;32625;51.080;16.970;2023-08-30T10:01:51;15.50;99.90
46890;DHT22;32625;51.080;16.970;2023-08-30T10:04:20;15.60;99.90
46890;DHT22;32625;51.080;16.970;2023-08-30T10:06:48;15.50;99.90
46890;DHT22;32625;51.080;16.970;2023-08-30T10:09:15;15.50;99.90
46890;DHT22;32625;51.080;16.970;2023-08-30T10:11:46;15.40;99.90
46890;DHT22;32625;51.080;16.970;2023-08-30T10:14:14;15.40;99.90
46890;DHT22;32625;51.080;16.970;2023-08-30T10:16:46;15.50;99.90
46890;DHT22;32625;51.080;16.970;2023-08-30T10:19:24;15.60;99.90
46890;DHT22;32625;51.080;16.970;2023-08-30T10:22:01;15.60;99.90
46890;DHT22;32625;51.080;16.970;2023-08-30T10:24:53;15.70;99.90
46890;DHT22;32625;51.080;16.970;2023-08-30T10:27:38;15.80;99.90
46890;DHT22;32625;51.080;16.970;2023-08-30T10:30:08;16.00;99.90
46890;DHT22;32625;51.080;16.970;2023-08-30T10:32:40;16.10;99.90
46890;DHT22;32625;51.080;16.970;2023-08-30T10:35:11;16.20;99.90
46890;DHT22;32625;51.080;16.970;2023-08-30T10:37:40;16.20;99.90
46890;DHT22;32625;51.080;16.970;2023-08-30T10:40:08;16.10;99.90
46890;DHT22;32625;51.080;16.970;2023-08-30T10:42:35;16.10;99.90
46890;DHT22;32625;51.080;16.970;2023-08-30T10:45:06;16.10;99.90
46890;DHT22;32625;51.080;16.970;2023-08-30T10:47:37;16.10;99.90
46890;DHT22;32625;51.080;16.970;2023-08-30T10:50:12;16.00;99.90
46890;DHT22;32625;51.080;16.970;2023-08-30T10:52:40;16.00;99.90
46890;DHT22;32625;51.080;16.970;2023-08-30T10:55:15;15.90;99.90
46890;DHT22;32625;51.080;16.970;2023-08-30T10:57:46;15.80;99.90
46890;DHT22;32625;51.080;16.970;2023-08-30T11:00:19;15.80;99.90
46890;DHT22;32625;51.080;16.970;2023-08-30T11:02:51;15.90;99.90
46890;DHT22;32625;51.080;16.970;2023-08-30T11:05:21;16.00;99.90
46890;DHT22;32625;51.080;16.970;2023-08-30T11:07:49;16.10;99.90
46890;DHT22;32625;51.080;16.970;2023-08-30T11:10:19;16.30;99.90
46890;DHT22;32625;51.080;16.970;2023-08-30T11:12:46;16.40;99.90
46890;DHT22;32625;51.080;16.970;2023-08-30T11:15:16;16.60;99.90
46890;DHT22;32625;51.080;16.970;2023-08-30T11:17:44;16.60;99.90
46890;DHT22;32625;51.080;16.970;2023-08-30T11:20:16;16.70;99.90
46890;DHT22;32625;51.080;16.970;2023-08-30T11:22:46;16.70;99.90
46890;DHT22;32625;51.080;16.970;2023-08-30T11:25:15;16.50;99.90
46890;DHT22;32625;51.080;16.970;2023-08-30T11:27:42;16.40;99.90
46890;DHT22;32625;51.080;16.970;2023-08-30T11:30:10;16.40;99.90
46890;DHT22;32625;51.080;16.970;2023-08-30T11:32:39;16.30;99.90
46890;DHT22;32625;51.080;16.970;2023-08-30T11:35:07;16.30;99.90
46890;DHT22;32625;51.080;16.970;2023-08-30T11:37:34;16.40;99.90
46890;DHT22;32625;51.080;16.970;2023-08-30T11:40:02;16.40;99.90
46890;DHT22;32625;51.080;16.970;2023-08-30T11:42:31;16.40;99.90
46890;DHT22;32625;51.080;16.970;2023-08-30T11:44:59;16.40;99.90
46890;DHT22;32625;51.080;16.970;2023-08-30T11:47:26;16.40;99.90
46890;DHT22;32625;51.080;16.970;2023-08-30T11:49:56;16.30;99.90
46890;DHT22;32625;51.080;16.970;2023-08-30T11:52:25;16.30;99.90
46890;DHT22;32625;51.080;16.970;2023-08-30T11:54:52;16.20;99.90
46890;DHT22;32625;51.080;16.970;2023-08-30T11:57:20;16.20;99.90
46890;DHT22;32625;51.080;16.970;2023-08-30T11:59:48;16.20;99.90
46890;DHT22;32625;51.080;16.970;2023-08-30T12:02:16;16.30;99.90
46890;DHT22;32625;51.080;16.970;2023-08-30T12:04:45;16.30;99.90
46890;DHT22;32625;51.080;16.970;2023-08-30T12:07:26;16.30;99.90
46890;DHT22;32625;51.080;16.970;2023-08-30T12:10:10;16.30;99.90
46890;DHT22;32625;51.080;16.970;2023-08-30T12:12:38;16.40;99.90
46890;DHT22;32625;51.080;16.970;2023-08-30T12:15:11;16.40;99.90
46890;DHT22;32625;51.080;16.970;2023-08-30T12:17:39;16.40;99.90
46890;DHT22;32625;51.080;16.970;2023-08-30T12:20:06;16.40;99.90
46890;DHT22;32625;51.080;16.970;2023-08-30T12:22:41;16.30;99.90
46890;DHT22;32625;51.080;16.970;2023-08-30T12:25:21;16.20;99.90
46890;DHT22;32625;51.080;16.970;2023-08-30T12:27:50;16.20;99.90
46890;DHT22;32625;51.080;16.970;2023-08-30T12:30:18;16.20;99.90
46890;DHT22;32625;51.080;16.970;2023-08-30T12:32:45;16.20;99.90
46890;DHT22;32625;51.080;16.970;2023-08-30T12:35:13;16.20;99.90
46890;DHT22;32625;51.080;16.970;2023-08-30T12:37:40;16.30;99.90
46890;DHT22;32625;51.080;16.970;2023-08-30T12:40:07;16.30;99.90
46890;DHT22;32625;51.080;16.970;2023-08-30T12:42:35;16.30;99.90
46890;DHT22;32625;51.080;16.970;2023-08-30T12:45:02;16.40;99.90
46890;DHT22;32625;51.080;16.970;2023-08-30T12:47:30;16.50;99.90
46890;DHT22;32625;51.080;16.970;2023-08-30T12:49:57;16.60;99.90
46890;DHT22;32625;51.080;16.970;2023-08-30T12:52:24;16.60;99.90
46890;DHT22;32625;51.080;16.970;2023-08-30T12:54:51;16.60;99.90
46890;DHT22;32625;51.080;16.970;2023-08-30T12:57:19;16.60;99.90
46890;DHT22;32625;51.080;16.970;2023-08-30T12:59:46;16.50;99.90
46890;DHT22;32625;51.080;16.970;2023-08-30T13:02:13;16.60;99.90
46890;DHT22;32625;51.080;16.970;2023-08-30T13:04:40;16.60;99.90
46890;DHT22;32625;51.080;16.970;2023-08-30T13:07:07;16.60;99.90
46890;DHT22;32625;51.080;16.970;2023-08-30T13:09:34;16.60;99.90
46890;DHT22;32625;51.080;16.970;2023-08-30T13:12:01;16.60;99.90
46890;DHT22;32625;51.080;16.970;2023-08-30T13:14:28;16.60;99.90
46890;DHT22;32625;51.080;16.970;2023-08-30T13:16:55;16.70;99.90
46890;DHT22;32625;51.080;16.970;2023-08-30T13:19:22;16.80;99.90
46890;DHT22;32625;51.080;16.970;2023-08-30T13:21:49;16.80;99.90
46890;DHT22;32625;51.080;16.970;2023-08-30T13:24:16;16.90;99.90
46890;DHT22;32625;51.080;16.970;2023-08-30T13:26:43;17.00;99.90
46890;DHT22;32625;51.080;16.970;2023-08-30T13:29:10;17.00;99.90
46890;DHT22;32625;51.080;16.970;2023-08-30T13:31:36;16.90;99.90
46890;DHT22;32625;51.080;16.970;2023-08-30T13:34:03;16.90;99.90
46890;DHT22;32625;51.080;16.970;2023-08-30T13:36:30;16.80;99.90
46890;DHT22;32625;51.080;16.970;2023-08-30T13:38:59;16.80;99.90
46890;DHT22;32625;51.080;16.970;2023-08-30T13:41:26;16.70;99.90
46890;DHT22;32625;51.080;16.970;2023-08-30T13:43:53;16.70;99.90
46890;DHT22;32625;51.080;16.970;2023-08-30T13:46:23;16.70;99.90
46890;DHT22;32625;51.080;16.970;2023-08-30T13:48:50;16.70;99.90
46890;DHT22;32625;51.080;16.970;2023-08-30T13:51:24;16.70;99.90
46890;DHT22;32625;51.080;16.970;2023-08-30T13:53:52;16.80;99.90
46890;DHT22;32625;51.080;16.970;2023-08-30T13:56:19;16.80;99.90
46890;DHT22;32625;51.080;16.970;2023-08-30T13:58:47;16.90;99.90
46890;DHT22;32625;51.080;16.970;2023-08-30T14:01:13;16.90;99.90
46890;DHT22;32625;51.080;16.970;2023-08-30T14:03:41;16.90;99.90
46890;DHT22;32625;51.080;16.970;2023-08-30T14:06:08;16.90;99.90
46890;DHT22;32625;51.080;16.970;2023-08-30T14:08:35;16.90;99.90
46890;DHT22;32625;51.080;16.970;2023-08-30T14:11:02;16.90;99.90
46890;DHT22;32625;51.080;16.970;2023-08-30T14:13:30;16.90;99.90
46890;DHT22;32625;51.080;16.970;2023-08-30T14:16:03;16.90;99.90
46890;DHT22;32625;51.080;16.970;2023-08-30T14:18:30;16.90;99.90
46890;DHT22;32625;51.080;16.970;2023-08-30T14:20:58;17.00;99.90
46890;DHT22;32625;51.080;16.970;2023-08-30T14:23:27;17.00;99.90
46890;DHT22;32625;51.080;16.970;2023-08-30T14:26:04;16.90;99.90
46890;DHT22;32625;51.080;16.970;2023-08-30T14:28:40;17.00;99.90
46890;DHT22;32625;51.080;16.970;2023-08-30T14:31:08;17.00;99.90
46890;DHT22;32625;51.080;16.970;2023-08-30T14:33:36;17.10;99.90
46890;DHT22;32625;51.080;16.970;2023-08-30T14:36:08;17.10;99.90
46890;DHT22;32625;51.080;16.970;2023-08-30T14:38:37;17.00;99.90
46890;DHT22;32625;51.080;16.970;2023-08-30T14:41:04;17.00;99.90
46890;DHT22;32625;51.080;16.970;2023-08-30T14:43:32;17.00;99.90
46890;DHT22;32625;51.080;16.970;2023-08-30T14:46:04;17.00;99.90
46890;DHT22;32625;51.080;16.970;2023-08-30T14:48:39;17.00;99.90
46890;DHT22;32625;51.080;16.970;2023-08-30T14:51:07;16.90;99.90
46890;DHT22;32625;51.080;16.970;2023-08-30T14:53:34;16.90;99.90
46890;DHT22;32625;51.080;16.970;2023-08-30T14:56:03;16.90;99.90
46890;DHT22;32625;51.080;16.970;2023-08-30T14:58:34;16.80;99.90
46890;DHT22;32625;51.080;16.970;2023-08-30T15:01:02;16.80;99.90
46890;DHT22;32625;51.080;16.970;2023-08-30T15:03:29;16.80;99.90
46890;DHT22;32625;51.080;16.970;2023-08-30T15:05:58;16.80;99.90
46890;DHT22;32625;51.080;16.970;2023-08-30T15:08:25;16.80;99.90
46890;DHT22;32625;51.080;16.970;2023-08-30T15:10:52;16.80;99.90
46890;DHT22;32625;51.080;16.970;2023-08-30T15:13:20;16.70;99.90
46890;DHT22;32625;51.080;16.970;2023-08-30T15:15:47;16.70;99.90
46890;DHT22;32625;51.080;16.970;2023-08-30T15:18:14;16.70;99.90
46890;DHT22;32625;51.080;16.970;2023-08-30T15:20:42;16.60;99.90
46890;DHT22;32625;51.080;16.970;2023-08-30T15:23:12;16.60;99.90
46890;DHT22;32625;51.080;16.970;2023-08-30T15:25:45;16.60;99.90
46890;DHT22;32625;51.080;16.970;2023-08-30T15:28:14;16.50;99.90
46890;DHT22;32625;51.080;16.970;2023-08-30T15:30:45;16.50;99.90